Archival Weather

Tokyo Intl

Tokyo, Japan (RJTT)

Report from: Friday, September 22, 2023 7:00 PM JST
Current time: Sunday, February 25, 2024 12:12 AM JST

Current weather – Weather history – Daily summaries
Weather forecast

Present weatherHeavy rain showers, mist, rain showers
Temperature23.0°C (73.4°F)
Dew point23.0°C (73.4°F)
Winds 11 kts (5.7 m/s, 12.7 mph) North-Northeast (30°)
Visibility2.5 mi. (4 km)
Clouds Few clouds 300 ft. (91 m)
Scattered clouds 2,000 ft. (610 m)
Ceiling: Broken clouds 3,500 ft. (1,067 m)
Altimeter29.91 in.Hg (1013 mB)
Relative humidity100 %
Density altitude1,316 ft. (401 m)
Flight conditions Instrument Meteorological Conditions
Raw dataRJTT 221000Z 03011KT 4000 R34L/P2000N R22/P2000N R34R/2000N R05/P2000N +SHRA BR FEW003 SCT020 BKN035 23/23 Q1013 TEMPO 3000 SHRA BR
An error has occurred. This application may no longer respond until reloaded. Reload 🗙